Indian Grove, Missouri
Current Conditions -  °F | °C
As of 11:35 AM on Thursday 23 Oct 2014 (Local Time) from KVER Reporting Station
Overcast Overcast  
Wind Chill: 57°   Ceiling: 9500
Heat Index: 57°   Visibility: 10mi
Dew Point: 47°   Wind: 5mph
Humidity: 69%   Direction: 220°SW
Pressure: 30.15"   Gusts: NA
Location:  39.4474°N, 93.0872°W
Report Text: KVER 231635Z AUTO 22004KT 10SM SCT070 OVC095 14/08 A3015 RMK AO2 T01400084
Loading
Personal Weather Stations






























Interactive Weather Map New forecast layout! Learn more

10-Day Weather Forecast

Advertisements
Track Severe Weather on mobile